Terminal Aerodrome Forecast
Issued by NWS

Home | Current Version | Previous Version | Graphics & Text | Print | Product List | Glossary On
Versions: 1 2 3 4 5 6 7 8 9 10 11 12 13 14
000
FTUS43 KIWX 191700
TAFSBN
TAF
KSBN 191720Z 1918/2018 33013G20KT P6SM BKN035
      TEMPO 1918/1920 BKN028
     FM192200 33007KT P6SM FEW035
     FM200600 35005KT P6SM SCT200=

USA.gov is the U.S. government's official web portal to all federal, state and local government web resources and services.